sensor_id;sensor_type;location;lat;lon;timestamp;temperature;humidity
18321;DHT22;54904;54.350;18.664;2022-11-15T00:01:23;11.30;99.90
18321;DHT22;54904;54.350;18.664;2022-11-15T00:04:09;11.30;99.90
18321;DHT22;54904;54.350;18.664;2022-11-15T00:06:55;11.30;99.90
18321;DHT22;54904;54.350;18.664;2022-11-15T00:09:40;11.30;99.90
18321;DHT22;54904;54.350;18.664;2022-11-15T00:12:27;11.30;99.90
18321;DHT22;54904;54.350;18.664;2022-11-15T00:15:12;11.30;99.90
18321;DHT22;54904;54.350;18.664;2022-11-15T00:17:59;11.20;99.90
18321;DHT22;54904;54.350;18.664;2022-11-15T00:20:45;11.20;99.90
18321;DHT22;54904;54.350;18.664;2022-11-15T00:23:30;11.20;99.90
18321;DHT22;54904;54.350;18.664;2022-11-15T00:26:16;11.20;99.90
18321;DHT22;54904;54.350;18.664;2022-11-15T00:29:02;11.20;99.90
18321;DHT22;54904;54.350;18.664;2022-11-15T00:31:48;11.10;99.90
18321;DHT22;54904;54.350;18.664;2022-11-15T00:34:35;11.10;99.90
18321;DHT22;54904;54.350;18.664;2022-11-15T00:37:20;11.10;99.90
18321;DHT22;54904;54.350;18.664;2022-11-15T00:40:07;11.20;99.90
18321;DHT22;54904;54.350;18.664;2022-11-15T00:42:53;11.10;99.90
18321;DHT22;54904;54.350;18.664;2022-11-15T00:45:38;11.10;99.90
18321;DHT22;54904;54.350;18.664;2022-11-15T00:48:24;11.10;99.90
18321;DHT22;54904;54.350;18.664;2022-11-15T00:51:11;11.10;99.90
18321;DHT22;54904;54.350;18.664;2022-11-15T00:53:56;11.10;99.90
18321;DHT22;54904;54.350;18.664;2022-11-15T00:56:42;11.10;99.90
18321;DHT22;54904;54.350;18.664;2022-11-15T00:59:27;11.10;99.90
18321;DHT22;54904;54.350;18.664;2022-11-15T01:02:13;11.10;99.90
18321;DHT22;54904;54.350;18.664;2022-11-15T01:04:58;11.00;99.90
18321;DHT22;54904;54.350;18.664;2022-11-15T01:07:46;11.00;99.90
18321;DHT22;54904;54.350;18.664;2022-11-15T01:10:31;11.00;99.90
18321;DHT22;54904;54.350;18.664;2022-11-15T01:13:17;10.90;99.90
18321;DHT22;54904;54.350;18.664;2022-11-15T01:16:07;11.00;99.90
18321;DHT22;54904;54.350;18.664;2022-11-15T01:18:52;11.00;99.90
18321;DHT22;54904;54.350;18.664;2022-11-15T01:21:38;11.00;99.90
18321;DHT22;54904;54.350;18.664;2022-11-15T01:24:26;11.00;99.90
18321;DHT22;54904;54.350;18.664;2022-11-15T01:27:11;10.90;99.90
18321;DHT22;54904;54.350;18.664;2022-11-15T01:29:57;10.90;99.90
18321;DHT22;54904;54.350;18.664;2022-11-15T01:32:42;11.00;99.90
18321;DHT22;54904;54.350;18.664;2022-11-15T01:35:28;11.00;99.90
18321;DHT22;54904;54.350;18.664;2022-11-15T01:38:13;11.00;99.90
18321;DHT22;54904;54.350;18.664;2022-11-15T01:41:00;11.00;99.90
18321;DHT22;54904;54.350;18.664;2022-11-15T01:43:47;11.00;99.90
18321;DHT22;54904;54.350;18.664;2022-11-15T01:46:34;11.00;99.90
18321;DHT22;54904;54.350;18.664;2022-11-15T01:49:22;10.90;99.90
18321;DHT22;54904;54.350;18.664;2022-11-15T01:52:11;10.90;99.90
18321;DHT22;54904;54.350;18.664;2022-11-15T01:55:03;10.90;99.90
18321;DHT22;54904;54.350;18.664;2022-11-15T01:57:55;10.90;99.90
18321;DHT22;54904;54.350;18.664;2022-11-15T02:00:42;11.00;99.90
18321;DHT22;54904;54.350;18.664;2022-11-15T02:03:33;11.00;99.90
18321;DHT22;54904;54.350;18.664;2022-11-15T02:06:21;11.00;99.90
18321;DHT22;54904;54.350;18.664;2022-11-15T02:09:07;11.00;99.90
18321;DHT22;54904;54.350;18.664;2022-11-15T02:11:54;11.00;99.90
18321;DHT22;54904;54.350;18.664;2022-11-15T02:14:44;11.10;99.90
18321;DHT22;54904;54.350;18.664;2022-11-15T02:17:43;11.10;99.90
18321;DHT22;54904;54.350;18.664;2022-11-15T02:20:40;11.00;99.90
18321;DHT22;54904;54.350;18.664;2022-11-15T02:30:35;11.10;99.90
18321;DHT22;54904;54.350;18.664;2022-11-15T02:33:32;11.10;99.90
18321;DHT22;54904;54.350;18.664;2022-11-15T02:36:29;11.00;99.90
18321;DHT22;54904;54.350;18.664;2022-11-15T02:39:23;11.00;99.90
18321;DHT22;54904;54.350;18.664;2022-11-15T02:42:16;10.90;99.90
18321;DHT22;54904;54.350;18.664;2022-11-15T02:45:24;10.80;99.90
18321;DHT22;54904;54.350;18.664;2022-11-15T02:48:14;10.80;99.90
18321;DHT22;54904;54.350;18.664;2022-11-15T02:51:01;10.70;99.90
18321;DHT22;54904;54.350;18.664;2022-11-15T02:53:46;10.70;99.90
18321;DHT22;54904;54.350;18.664;2022-11-15T02:56:32;10.60;99.90
18321;DHT22;54904;54.350;18.664;2022-11-15T02:59:29;10.60;99.90
18321;DHT22;54904;54.350;18.664;2022-11-15T03:02:36;10.60;99.90
18321;DHT22;54904;54.350;18.664;2022-11-15T03:05:34;10.60;99.90
18321;DHT22;54904;54.350;18.664;2022-11-15T03:08:25;10.70;99.90
18321;DHT22;54904;54.350;18.664;2022-11-15T03:11:14;10.70;99.90
18321;DHT22;54904;54.350;18.664;2022-11-15T03:14:06;10.80;99.90
18321;DHT22;54904;54.350;18.664;2022-11-15T03:17:01;10.80;99.90
18321;DHT22;54904;54.350;18.664;2022-11-15T03:19:51;10.80;99.90
18321;DHT22;54904;54.350;18.664;2022-11-15T03:22:43;10.80;99.90
18321;DHT22;54904;54.350;18.664;2022-11-15T03:25:31;10.80;99.90
18321;DHT22;54904;54.350;18.664;2022-11-15T03:28:20;10.80;99.90
18321;DHT22;54904;54.350;18.664;2022-11-15T03:31:09;10.80;99.90
18321;DHT22;54904;54.350;18.664;2022-11-15T03:34:19;10.80;99.90
18321;DHT22;54904;54.350;18.664;2022-11-15T03:37:07;10.80;99.90
18321;DHT22;54904;54.350;18.664;2022-11-15T03:39:55;11.00;99.90
18321;DHT22;54904;54.350;18.664;2022-11-15T03:42:46;10.60;99.90
18321;DHT22;54904;54.350;18.664;2022-11-15T03:45:39;10.70;99.90
18321;DHT22;54904;54.350;18.664;2022-11-15T03:48:28;10.70;99.90
18321;DHT22;54904;54.350;18.664;2022-11-15T03:51:15;10.70;99.90
18321;DHT22;54904;54.350;18.664;2022-11-15T03:54:03;10.70;99.90
18321;DHT22;54904;54.350;18.664;2022-11-15T03:56:50;10.70;99.90
18321;DHT22;54904;54.350;18.664;2022-11-15T03:59:35;10.70;99.90
18321;DHT22;54904;54.350;18.664;2022-11-15T04:02:20;10.70;99.90
18321;DHT22;54904;54.350;18.664;2022-11-15T04:05:07;10.70;99.90
18321;DHT22;54904;54.350;18.664;2022-11-15T04:07:52;10.80;99.90
18321;DHT22;54904;54.350;18.664;2022-11-15T04:10:38;10.60;99.90
18321;DHT22;54904;54.350;18.664;2022-11-15T04:13:25;10.60;99.90
18321;DHT22;54904;54.350;18.664;2022-11-15T04:16:10;10.50;99.90
18321;DHT22;54904;54.350;18.664;2022-11-15T04:18:56;10.50;99.90
18321;DHT22;54904;54.350;18.664;2022-11-15T04:21:55;10.60;99.90
18321;DHT22;54904;54.350;18.664;2022-11-15T04:24:58;10.60;99.90
18321;DHT22;54904;54.350;18.664;2022-11-15T04:27:44;10.60;99.90
18321;DHT22;54904;54.350;18.664;2022-11-15T04:30:31;10.60;99.90
18321;DHT22;54904;54.350;18.664;2022-11-15T04:33:16;10.60;99.90
18321;DHT22;54904;54.350;18.664;2022-11-15T04:36:02;10.70;99.90
18321;DHT22;54904;54.350;18.664;2022-11-15T04:39:04;10.70;99.90
18321;DHT22;54904;54.350;18.664;2022-11-15T04:41:50;10.70;99.90
18321;DHT22;54904;54.350;18.664;2022-11-15T04:44:36;10.70;99.90
18321;DHT22;54904;54.350;18.664;2022-11-15T04:47:22;10.80;99.90
18321;DHT22;54904;54.350;18.664;2022-11-15T04:50:08;10.70;99.90
18321;DHT22;54904;54.350;18.664;2022-11-15T04:52:56;10.70;99.90
18321;DHT22;54904;54.350;18.664;2022-11-15T04:55:44;10.70;99.90
18321;DHT22;54904;54.350;18.664;2022-11-15T04:58:30;10.70;99.90
18321;DHT22;54904;54.350;18.664;2022-11-15T05:01:16;10.70;99.90
18321;DHT22;54904;54.350;18.664;2022-11-15T05:04:03;10.80;99.90
18321;DHT22;54904;54.350;18.664;2022-11-15T05:07:05;10.70;99.90
18321;DHT22;54904;54.350;18.664;2022-11-15T05:09:51;10.70;99.90
18321;DHT22;54904;54.350;18.664;2022-11-15T05:12:37;10.70;99.90
18321;DHT22;54904;54.350;18.664;2022-11-15T05:15:22;10.70;99.90
18321;DHT22;54904;54.350;18.664;2022-11-15T05:18:08;10.70;99.90
18321;DHT22;54904;54.350;18.664;2022-11-15T05:20:55;10.60;99.90
18321;DHT22;54904;54.350;18.664;2022-11-15T05:23:41;10.60;99.90
18321;DHT22;54904;54.350;18.664;2022-11-15T05:26:27;10.60;99.90
18321;DHT22;54904;54.350;18.664;2022-11-15T05:29:12;10.60;99.90
18321;DHT22;54904;54.350;18.664;2022-11-15T05:31:58;10.60;99.90
18321;DHT22;54904;54.350;18.664;2022-11-15T05:34:45;10.60;99.90
18321;DHT22;54904;54.350;18.664;2022-11-15T05:37:32;10.60;99.90
18321;DHT22;54904;54.350;18.664;2022-11-15T05:40:18;10.70;99.90
18321;DHT22;54904;54.350;18.664;2022-11-15T05:43:04;10.70;99.90
18321;DHT22;54904;54.350;18.664;2022-11-15T05:45:50;10.70;99.90
18321;DHT22;54904;54.350;18.664;2022-11-15T05:48:37;10.70;99.90
18321;DHT22;54904;54.350;18.664;2022-11-15T05:51:22;10.80;99.90
18321;DHT22;54904;54.350;18.664;2022-11-15T05:54:09;10.80;99.90
18321;DHT22;54904;54.350;18.664;2022-11-15T05:56:55;10.80;99.90
18321;DHT22;54904;54.350;18.664;2022-11-15T05:59:41;10.80;99.90
18321;DHT22;54904;54.350;18.664;2022-11-15T06:02:28;10.80;99.90
18321;DHT22;54904;54.350;18.664;2022-11-15T06:05:13;10.80;99.90
18321;DHT22;54904;54.350;18.664;2022-11-15T06:07:59;10.80;99.90
18321;DHT22;54904;54.350;18.664;2022-11-15T06:10:46;10.80;99.90
18321;DHT22;54904;54.350;18.664;2022-11-15T06:13:32;10.90;99.90
18321;DHT22;54904;54.350;18.664;2022-11-15T06:16:17;10.80;99.90
18321;DHT22;54904;54.350;18.664;2022-11-15T06:19:03;10.80;99.90
18321;DHT22;54904;54.350;18.664;2022-11-15T06:21:48;10.80;99.90
18321;DHT22;54904;54.350;18.664;2022-11-15T06:24:34;10.80;99.90
18321;DHT22;54904;54.350;18.664;2022-11-15T06:27:21;10.90;99.90
18321;DHT22;54904;54.350;18.664;2022-11-15T06:30:07;10.90;99.90
18321;DHT22;54904;54.350;18.664;2022-11-15T06:32:58;10.90;99.90
18321;DHT22;54904;54.350;18.664;2022-11-15T06:35:45;10.90;99.90
18321;DHT22;54904;54.350;18.664;2022-11-15T06:38:31;10.90;99.90
18321;DHT22;54904;54.350;18.664;2022-11-15T06:41:16;10.90;99.90
18321;DHT22;54904;54.350;18.664;2022-11-15T06:44:04;10.90;99.90
18321;DHT22;54904;54.350;18.664;2022-11-15T06:46:49;10.80;99.90
18321;DHT22;54904;54.350;18.664;2022-11-15T06:49:35;10.90;99.90
18321;DHT22;54904;54.350;18.664;2022-11-15T06:52:20;10.90;99.90
18321;DHT22;54904;54.350;18.664;2022-11-15T06:55:08;10.90;99.90
18321;DHT22;54904;54.350;18.664;2022-11-15T06:57:53;11.00;99.90
18321;DHT22;54904;54.350;18.664;2022-11-15T07:00:41;10.90;99.90
18321;DHT22;54904;54.350;18.664;2022-11-15T07:03:26;10.90;99.90
18321;DHT22;54904;54.350;18.664;2022-11-15T07:06:12;11.00;99.90
18321;DHT22;54904;54.350;18.664;2022-11-15T07:08:58;11.00;99.90
18321;DHT22;54904;54.350;18.664;2022-11-15T07:11:43;11.00;99.90
18321;DHT22;54904;54.350;18.664;2022-11-15T07:14:29;11.00;99.90
18321;DHT22;54904;54.350;18.664;2022-11-15T07:17:22;11.00;99.90
18321;DHT22;54904;54.350;18.664;2022-11-15T07:20:13;11.00;99.90
18321;DHT22;54904;54.350;18.664;2022-11-15T07:23:00;11.00;99.90
18321;DHT22;54904;54.350;18.664;2022-11-15T07:25:47;11.00;99.90
18321;DHT22;54904;54.350;18.664;2022-11-15T07:28:32;11.00;99.90
18321;DHT22;54904;54.350;18.664;2022-11-15T07:31:18;11.00;99.90
18321;DHT22;54904;54.350;18.664;2022-11-15T07:34:05;11.10;99.90
18321;DHT22;54904;54.350;18.664;2022-11-15T07:36:51;11.10;99.90
18321;DHT22;54904;54.350;18.664;2022-11-15T07:39:36;11.10;99.90
18321;DHT22;54904;54.350;18.664;2022-11-15T07:42:22;11.10;99.90
18321;DHT22;54904;54.350;18.664;2022-11-15T07:45:25;11.10;99.90
18321;DHT22;54904;54.350;18.664;2022-11-15T07:48:11;11.10;99.90
18321;DHT22;54904;54.350;18.664;2022-11-15T07:50:58;11.00;99.90
18321;DHT22;54904;54.350;18.664;2022-11-15T07:53:45;11.00;99.90
18321;DHT22;54904;54.350;18.664;2022-11-15T07:56:30;10.90;99.90
18321;DHT22;54904;54.350;18.664;2022-11-15T07:59:16;10.90;99.90
18321;DHT22;54904;54.350;18.664;2022-11-15T08:02:02;10.80;99.90
18321;DHT22;54904;54.350;18.664;2022-11-15T08:04:48;10.70;99.90
18321;DHT22;54904;54.350;18.664;2022-11-15T08:07:34;10.70;99.90
18321;DHT22;54904;54.350;18.664;2022-11-15T08:10:22;10.60;99.90
18321;DHT22;54904;54.350;18.664;2022-11-15T08:13:09;10.60;99.90
18321;DHT22;54904;54.350;18.664;2022-11-15T08:15:58;10.70;99.90
18321;DHT22;54904;54.350;18.664;2022-11-15T08:18:44;10.70;99.90
18321;DHT22;54904;54.350;18.664;2022-11-15T08:21:29;10.80;99.90
18321;DHT22;54904;54.350;18.664;2022-11-15T08:24:16;10.80;99.90
18321;DHT22;54904;54.350;18.664;2022-11-15T08:27:02;10.90;99.90
18321;DHT22;54904;54.350;18.664;2022-11-15T08:29:48;10.90;99.90
18321;DHT22;54904;54.350;18.664;2022-11-15T08:32:34;11.00;99.90
18321;DHT22;54904;54.350;18.664;2022-11-15T08:35:20;10.90;99.90
18321;DHT22;54904;54.350;18.664;2022-11-15T08:38:06;10.90;99.90
18321;DHT22;54904;54.350;18.664;2022-11-15T08:40:59;10.90;99.90
18321;DHT22;54904;54.350;18.664;2022-11-15T08:43:46;10.90;99.90
18321;DHT22;54904;54.350;18.664;2022-11-15T08:46:32;10.90;99.90
18321;DHT22;54904;54.350;18.664;2022-11-15T08:49:17;10.90;99.90
18321;DHT22;54904;54.350;18.664;2022-11-15T08:52:03;10.90;99.90
18321;DHT22;54904;54.350;18.664;2022-11-15T08:54:49;10.90;99.90
18321;DHT22;54904;54.350;18.664;2022-11-15T08:57:36;11.00;99.90
18321;DHT22;54904;54.350;18.664;2022-11-15T09:00:22;11.00;99.90
18321;DHT22;54904;54.350;18.664;2022-11-15T09:03:07;11.00;99.90
18321;DHT22;54904;54.350;18.664;2022-11-15T09:05:55;11.00;99.90
18321;DHT22;54904;54.350;18.664;2022-11-15T09:08:41;11.00;99.90
18321;DHT22;54904;54.350;18.664;2022-11-15T09:11:26;11.00;99.90
18321;DHT22;54904;54.350;18.664;2022-11-15T09:14:13;11.00;99.90
18321;DHT22;54904;54.350;18.664;2022-11-15T09:16:59;11.00;99.90
18321;DHT22;54904;54.350;18.664;2022-11-15T09:19:45;11.00;99.90
18321;DHT22;54904;54.350;18.664;2022-11-15T09:22:31;11.00;99.90
18321;DHT22;54904;54.350;18.664;2022-11-15T09:25:16;11.00;99.90
18321;DHT22;54904;54.350;18.664;2022-11-15T09:28:06;11.00;99.90
18321;DHT22;54904;54.350;18.664;2022-11-15T09:30:56;11.00;99.90
18321;DHT22;54904;54.350;18.664;2022-11-15T09:33:43;11.00;99.90
18321;DHT22;54904;54.350;18.664;2022-11-15T09:36:30;11.00;99.90
18321;DHT22;54904;54.350;18.664;2022-11-15T09:39:15;11.00;99.90
18321;DHT22;54904;54.350;18.664;2022-11-15T09:42:15;11.00;99.90
18321;DHT22;54904;54.350;18.664;2022-11-15T09:45:12;11.10;99.90
18321;DHT22;54904;54.350;18.664;2022-11-15T09:51:24;11.10;99.90
18321;DHT22;54904;54.350;18.664;2022-11-15T09:54:04;11.10;99.90
18321;DHT22;54904;54.350;18.664;2022-11-15T09:56:36;11.10;99.90
18321;DHT22;54904;54.350;18.664;2022-11-15T09:59:23;11.20;99.90
18321;DHT22;54904;54.350;18.664;2022-11-15T10:02:02;11.20;99.90
18321;DHT22;54904;54.350;18.664;2022-11-15T10:04:33;11.20;99.90
18321;DHT22;54904;54.350;18.664;2022-11-15T10:07:04;11.30;99.90
18321;DHT22;54904;54.350;18.664;2022-11-15T10:09:38;11.30;99.90
18321;DHT22;54904;54.350;18.664;2022-11-15T10:12:07;11.30;99.90
18321;DHT22;54904;54.350;18.664;2022-11-15T10:14:35;11.30;99.90
18321;DHT22;54904;54.350;18.664;2022-11-15T10:17:15;11.30;99.90
18321;DHT22;54904;54.350;18.664;2022-11-15T10:19:56;11.30;99.90
18321;DHT22;54904;54.350;18.664;2022-11-15T10:22:27;11.30;99.90
18321;DHT22;54904;54.350;18.664;2022-11-15T10:25:10;11.40;99.90
18321;DHT22;54904;54.350;18.664;2022-11-15T10:27:39;11.40;99.90
18321;DHT22;54904;54.350;18.664;2022-11-15T10:30:12;11.40;99.90
18321;DHT22;54904;54.350;18.664;2022-11-15T10:32:41;11.30;99.90
18321;DHT22;54904;54.350;18.664;2022-11-15T10:35:23;11.40;99.90
18321;DHT22;54904;54.350;18.664;2022-11-15T10:37:50;11.40;99.90
18321;DHT22;54904;54.350;18.664;2022-11-15T10:40:20;11.40;99.90
18321;DHT22;54904;54.350;18.664;2022-11-15T10:42:48;11.40;99.90
18321;DHT22;54904;54.350;18.664;2022-11-15T10:45:26;11.50;99.90
18321;DHT22;54904;54.350;18.664;2022-11-15T10:47:54;11.40;99.90
18321;DHT22;54904;54.350;18.664;2022-11-15T10:50:43;11.50;99.90
18321;DHT22;54904;54.350;18.664;2022-11-15T10:53:17;11.40;99.90
18321;DHT22;54904;54.350;18.664;2022-11-15T10:55:48;11.50;99.90
18321;DHT22;54904;54.350;18.664;2022-11-15T10:58:23;11.50;99.90
18321;DHT22;54904;54.350;18.664;2022-11-15T11:00:53;11.50;99.90
18321;DHT22;54904;54.350;18.664;2022-11-15T11:03:28;11.50;99.90
18321;DHT22;54904;54.350;18.664;2022-11-15T11:06:09;11.50;99.90
18321;DHT22;54904;54.350;18.664;2022-11-15T11:08:37;11.50;99.90
18321;DHT22;54904;54.350;18.664;2022-11-15T11:11:05;11.80;99.90
18321;DHT22;54904;54.350;18.664;2022-11-15T11:13:34;11.60;99.90
18321;DHT22;54904;54.350;18.664;2022-11-15T11:19:17;11.60;99.90
18321;DHT22;54904;54.350;18.664;2022-11-15T11:22:04;11.50;99.90
18321;DHT22;54904;54.350;18.664;2022-11-15T11:24:36;11.50;99.90
18321;DHT22;54904;54.350;18.664;2022-11-15T11:27:18;11.50;99.90
18321;DHT22;54904;54.350;18.664;2022-11-15T11:30:06;11.60;99.90
18321;DHT22;54904;54.350;18.664;2022-11-15T11:32:55;11.50;99.90
18321;DHT22;54904;54.350;18.664;2022-11-15T11:35:29;11.50;99.90
18321;DHT22;54904;54.350;18.664;2022-11-15T11:38:11;11.50;99.90
18321;DHT22;54904;54.350;18.664;2022-11-15T11:40:44;11.50;99.90
18321;DHT22;54904;54.350;18.664;2022-11-15T11:43:24;11.40;99.90
18321;DHT22;54904;54.350;18.664;2022-11-15T11:46:04;11.40;99.90
18321;DHT22;54904;54.350;18.664;2022-11-15T11:48:41;11.40;99.90
18321;DHT22;54904;54.350;18.664;2022-11-15T11:51:15;11.30;99.90
18321;DHT22;54904;54.350;18.664;2022-11-15T11:53:49;11.30;99.90
18321;DHT22;54904;54.350;18.664;2022-11-15T11:56:23;11.40;99.90
18321;DHT22;54904;54.350;18.664;2022-11-15T11:58:54;11.40;99.90
18321;DHT22;54904;54.350;18.664;2022-11-15T12:05:09;11.40;99.90
18321;DHT22;54904;54.350;18.664;2022-11-15T12:07:39;11.40;99.90
18321;DHT22;54904;54.350;18.664;2022-11-15T12:10:17;11.30;99.90
18321;DHT22;54904;54.350;18.664;2022-11-15T12:12:51;11.30;99.90
18321;DHT22;54904;54.350;18.664;2022-11-15T12:15:22;11.30;99.90
18321;DHT22;54904;54.350;18.664;2022-11-15T12:17:50;11.20;99.90
18321;DHT22;54904;54.350;18.664;2022-11-15T12:20:19;11.20;99.90
18321;DHT22;54904;54.350;18.664;2022-11-15T12:22:52;11.10;99.90
18321;DHT22;54904;54.350;18.664;2022-11-15T12:25:24;11.20;99.90
18321;DHT22;54904;54.350;18.664;2022-11-15T12:27:56;11.10;99.90
18321;DHT22;54904;54.350;18.664;2022-11-15T12:30:26;11.10;99.90
18321;DHT22;54904;54.350;18.664;2022-11-15T12:32:58;11.10;99.90
18321;DHT22;54904;54.350;18.664;2022-11-15T12:35:28;11.00;99.90
18321;DHT22;54904;54.350;18.664;2022-11-15T12:37:57;11.10;99.90
18321;DHT22;54904;54.350;18.664;2022-11-15T12:40:34;10.90;99.90
18321;DHT22;54904;54.350;18.664;2022-11-15T12:45:51;10.90;99.90
18321;DHT22;54904;54.350;18.664;2022-11-15T12:48:48;10.80;99.90
18321;DHT22;54904;54.350;18.664;2022-11-15T12:51:16;10.80;99.90
18321;DHT22;54904;54.350;18.664;2022-11-15T12:53:43;10.80;99.90
18321;DHT22;54904;54.350;18.664;2022-11-15T12:56:24;10.80;99.90
18321;DHT22;54904;54.350;18.664;2022-11-15T12:58:56;10.80;99.90
18321;DHT22;54904;54.350;18.664;2022-11-15T13:01:55;10.80;99.90
18321;DHT22;54904;54.350;18.664;2022-11-15T13:04:25;10.70;99.90
18321;DHT22;54904;54.350;18.664;2022-11-15T13:07:00;10.70;99.90
18321;DHT22;54904;54.350;18.664;2022-11-15T13:09:54;10.70;99.90
18321;DHT22;54904;54.350;18.664;2022-11-15T13:12:57;10.60;99.90
18321;DHT22;54904;54.350;18.664;2022-11-15T13:18:32;10.70;99.90
18321;DHT22;54904;54.350;18.664;2022-11-15T13:21:01;10.70;99.90
18321;DHT22;54904;54.350;18.664;2022-11-15T13:23:52;10.70;99.90
18321;DHT22;54904;54.350;18.664;2022-11-15T13:26:21;10.70;99.90
18321;DHT22;54904;54.350;18.664;2022-11-15T13:28:51;10.70;99.90
18321;DHT22;54904;54.350;18.664;2022-11-15T13:31:35;10.70;99.90
18321;DHT22;54904;54.350;18.664;2022-11-15T13:34:16;10.70;99.90
18321;DHT22;54904;54.350;18.664;2022-11-15T13:36:43;10.70;99.90
18321;DHT22;54904;54.350;18.664;2022-11-15T13:39:26;10.70;99.90
18321;DHT22;54904;54.350;18.664;2022-11-15T13:41:54;10.70;99.90
18321;DHT22;54904;54.350;18.664;2022-11-15T13:44:24;10.70;99.90
18321;DHT22;54904;54.350;18.664;2022-11-15T13:47:04;10.70;99.90
18321;DHT22;54904;54.350;18.664;2022-11-15T13:49:32;10.70;99.90
18321;DHT22;54904;54.350;18.664;2022-11-15T13:52:01;10.70;99.90
18321;DHT22;54904;54.350;18.664;2022-11-15T13:54:31;10.60;99.90
18321;DHT22;54904;54.350;18.664;2022-11-15T13:57:02;10.60;99.90
18321;DHT22;54904;54.350;18.664;2022-11-15T13:59:34;10.60;99.90
18321;DHT22;54904;54.350;18.664;2022-11-15T14:02:10;10.60;99.90
18321;DHT22;54904;54.350;18.664;2022-11-15T14:04:45;10.60;99.90
18321;DHT22;54904;54.350;18.664;2022-11-15T14:07:32;10.70;99.90
18321;DHT22;54904;54.350;18.664;2022-11-15T14:10:27;10.70;99.90
18321;DHT22;54904;54.350;18.664;2022-11-15T14:12:54;10.80;99.90
18321;DHT22;54904;54.350;18.664;2022-11-15T14:15:28;10.70;99.90
18321;DHT22;54904;54.350;18.664;2022-11-15T14:17:56;10.70;99.90
18321;DHT22;54904;54.350;18.664;2022-11-15T14:20:33;10.80;99.90
18321;DHT22;54904;54.350;18.664;2022-11-15T14:23:02;10.70;99.90
18321;DHT22;54904;54.350;18.664;2022-11-15T14:25:30;10.70;99.90
18321;DHT22;54904;54.350;18.664;2022-11-15T14:28:16;10.70;99.90
18321;DHT22;54904;54.350;18.664;2022-11-15T14:30:58;10.70;99.90
18321;DHT22;54904;54.350;18.664;2022-11-15T14:33:28;10.70;99.90
18321;DHT22;54904;54.350;18.664;2022-11-15T14:35:56;10.70;99.90
18321;DHT22;54904;54.350;18.664;2022-11-15T14:38:24;10.70;99.90
18321;DHT22;54904;54.350;18.664;2022-11-15T14:40:52;10.60;99.90
18321;DHT22;54904;54.350;18.664;2022-11-15T14:43:21;10.70;99.90
18321;DHT22;54904;54.350;18.664;2022-11-15T14:45:48;10.70;99.90
18321;DHT22;54904;54.350;18.664;2022-11-15T14:48:17;10.70;99.90
18321;DHT22;54904;54.350;18.664;2022-11-15T14:50:44;10.80;99.90
18321;DHT22;54904;54.350;18.664;2022-11-15T14:53:12;10.80;99.90
18321;DHT22;54904;54.350;18.664;2022-11-15T14:55:41;10.80;99.90
18321;DHT22;54904;54.350;18.664;2022-11-15T14:58:29;10.80;99.90
18321;DHT22;54904;54.350;18.664;2022-11-15T15:01:02;10.70;99.90
18321;DHT22;54904;54.350;18.664;2022-11-15T15:03:36;10.70;99.90
18321;DHT22;54904;54.350;18.664;2022-11-15T15:06:03;10.70;99.90
18321;DHT22;54904;54.350;18.664;2022-11-15T15:08:30;10.80;99.90
18321;DHT22;54904;54.350;18.664;2022-11-15T15:10:57;10.80;99.90
18321;DHT22;54904;54.350;18.664;2022-11-15T15:13:27;10.80;99.90
18321;DHT22;54904;54.350;18.664;2022-11-15T15:15:56;10.80;99.90
18321;DHT22;54904;54.350;18.664;2022-11-15T15:18:49;10.80;99.90
18321;DHT22;54904;54.350;18.664;2022-11-15T15:21:35;10.90;99.90
18321;DHT22;54904;54.350;18.664;2022-11-15T15:24:02;10.90;99.90
18321;DHT22;54904;54.350;18.664;2022-11-15T15:26:29;10.90;99.90
18321;DHT22;54904;54.350;18.664;2022-11-15T15:29:01;11.00;99.90
18321;DHT22;54904;54.350;18.664;2022-11-15T15:31:28;11.00;99.90
18321;DHT22;54904;54.350;18.664;2022-11-15T15:33:57;11.00;99.90
18321;DHT22;54904;54.350;18.664;2022-11-15T15:36:24;11.00;99.90
18321;DHT22;54904;54.350;18.664;2022-11-15T15:38:51;11.00;99.90
18321;DHT22;54904;54.350;18.664;2022-11-15T15:41:18;11.00;99.90
18321;DHT22;54904;54.350;18.664;2022-11-15T15:43:46;11.00;99.90
18321;DHT22;54904;54.350;18.664;2022-11-15T15:46:15;11.00;99.90
18321;DHT22;54904;54.350;18.664;2022-11-15T15:48:43;10.90;99.90
18321;DHT22;54904;54.350;18.664;2022-11-15T15:51:12;10.90;99.90
18321;DHT22;54904;54.350;18.664;2022-11-15T15:53:39;10.90;99.90
18321;DHT22;54904;54.350;18.664;2022-11-15T15:56:06;10.90;99.90
18321;DHT22;54904;54.350;18.664;2022-11-15T15:58:34;10.90;99.90
18321;DHT22;54904;54.350;18.664;2022-11-15T16:01:01;10.90;99.90
18321;DHT22;54904;54.350;18.664;2022-11-15T16:03:28;10.90;99.90
18321;DHT22;54904;54.350;18.664;2022-11-15T16:05:55;10.90;99.90
18321;DHT22;54904;54.350;18.664;2022-11-15T16:08:26;10.90;99.90
18321;DHT22;54904;54.350;18.664;2022-11-15T16:10:55;10.90;99.90
18321;DHT22;54904;54.350;18.664;2022-11-15T16:13:22;10.90;99.90
18321;DHT22;54904;54.350;18.664;2022-11-15T16:15:52;10.90;99.90
18321;DHT22;54904;54.350;18.664;2022-11-15T16:18:19;10.90;99.90
18321;DHT22;54904;54.350;18.664;2022-11-15T16:20:48;10.90;99.90
18321;DHT22;54904;54.350;18.664;2022-11-15T16:23:18;10.90;99.90
18321;DHT22;54904;54.350;18.664;2022-11-15T16:26:14;10.90;99.90
18321;DHT22;54904;54.350;18.664;2022-11-15T16:28:41;10.90;99.90
18321;DHT22;54904;54.350;18.664;2022-11-15T16:31:11;10.90;99.90
18321;DHT22;54904;54.350;18.664;2022-11-15T16:33:43;10.90;99.90
18321;DHT22;54904;54.350;18.664;2022-11-15T16:36:19;11.00;99.90
18321;DHT22;54904;54.350;18.664;2022-11-15T16:38:46;11.00;99.90
18321;DHT22;54904;54.350;18.664;2022-11-15T16:41:15;11.00;99.90
18321;DHT22;54904;54.350;18.664;2022-11-15T16:43:44;11.00;99.90
18321;DHT22;54904;54.350;18.664;2022-11-15T16:46:17;11.00;99.90
18321;DHT22;54904;54.350;18.664;2022-11-15T16:48:45;11.00;99.90
18321;DHT22;54904;54.350;18.664;2022-11-15T16:51:13;11.10;99.90
18321;DHT22;54904;54.350;18.664;2022-11-15T16:53:40;11.10;99.90
18321;DHT22;54904;54.350;18.664;2022-11-15T16:56:19;11.10;99.90
18321;DHT22;54904;54.350;18.664;2022-11-15T16:58:48;11.10;99.90
18321;DHT22;54904;54.350;18.664;2022-11-15T17:01:17;11.20;99.90
18321;DHT22;54904;54.350;18.664;2022-11-15T17:03:45;11.20;99.90
18321;DHT22;54904;54.350;18.664;2022-11-15T17:06:29;11.20;99.90